PWSweather.com
Personal Weather Stations
Station Observations
KMOHERMA2
Stony Hill, Hermann, MO 65041

Stony HillHermann, MO 65041

Lat: 38.527, Lon: -91.414

Elevation: 896

Station Type: Davis Vantage Pro 2

High Low Average
Temperature 38.1°F3.4°C 13.3°F-10.4°C 26.7°F-2.9°C
Dew Point 29.7°F-1.3°C -0.2°F-17.9°C 13.9°F-10.1°C
Winds 24.0 mph 38.6 kmh Calm Calm 6.0 mph SSW9.7 kmh SSW
Wind Gusts 24.0 mph38.6 kmh -- 2.0 mph3.2 kmh
Humidity 77% 40% 59%
Pressure 30.55 in1034.5 mb 29.91 in1012.9 mb -
Precipitation 0.00 in0.0 mm - -
Hour Temp Dew Point Humidity Winds Wind Gusts Pressure Precip Precip Rate Daily Precip Total
12:00 AM 39.5°F4.2°C 29.5°F-1.4°C 67% Calm Calm -- 29.90 in1012.5 mb 0.00 in0.0 mm 0.00 in0.0 mm 0.00 in0.0 mm
12:05 AM 39.4°F4.1°C 29.3°F-1.5°C 67% Calm Calm -- 29.90 in1012.5 mb 0.00 in0.0 mm 0.00 in0.0 mm 0.00 in0.0 mm
12:10 AM 39.2°F4.0°C 29.1°F-1.6°C 67% Calm Calm -- 29.91 in1012.9 mb 0.00 in0.0 mm 0.00 in0.0 mm 0.00 in0.0 mm
12:15 AM 38.9°F3.8°C 28.8°F-1.8°C 67% Calm Calm -- 29.91 in1012.9 mb 0.00 in0.0 mm 0.00 in0.0 mm 0.00 in0.0 mm
12:20 AM 38.8°F3.8°C 29.1°F-1.6°C 68% Calm Calm -- 29.91 in1012.9 mb 0.00 in0.0 mm 0.00 in0.0 mm 0.00 in0.0 mm
12:25 AM 38.6°F3.7°C 29.3°F-1.5°C 69% Calm Calm -- 29.91 in1012.9 mb 0.00 in0.0 mm 0.00 in0.0 mm 0.00 in0.0 mm
12:30 AM 38.5°F3.6°C 29.1°F-1.6°C 69% Calm Calm -- 29.91 in1012.9 mb 0.00 in0.0 mm 0.00 in0.0 mm 0.00 in0.0 mm
12:35 AM 38.4°F3.6°C 29.1°F-1.6°C 69% Calm Calm -- 29.91 in1012.9 mb 0.00 in0.0 mm 0.00 in0.0 mm 0.00 in0.0 mm
12:40 AM 38.3°F3.5°C 29.3°F-1.5°C 70% Calm Calm -- 29.92 in1013.2 mb 0.00 in0.0 mm 0.00 in0.0 mm 0.00 in0.0 mm
12:45 AM 38.2°F3.4°C 29.3°F-1.5°C 70% Calm Calm -- 29.92 in1013.2 mb 0.00 in0.0 mm 0.00 in0.0 mm 0.00 in0.0 mm
12:50 AM 38.1°F3.4°C 29.5°F-1.4°C 71% Calm Calm -- 29.93 in1013.5 mb 0.00 in0.0 mm 0.00 in0.0 mm 0.00 in0.0 mm
12:55 AM 38.1°F3.4°C 29.5°F-1.4°C 71% Calm Calm -- 29.93 in1013.5 mb 0.00 in0.0 mm 0.00 in0.0 mm 0.00 in0.0 mm
01:00 AM 38.0°F3.3°C 29.3°F-1.5°C 71% Calm Calm -- 29.92 in1013.2 mb 0.00 in0.0 mm 0.00 in0.0 mm 0.00 in0.0 mm
01:05 AM 38.0°F3.3°C 29.3°F-1.5°C 71% Calm Calm -- 29.92 in1013.2 mb 0.00 in0.0 mm 0.00 in0.0 mm 0.00 in0.0 mm
01:10 AM 38.0°F3.3°C 29.3°F-1.5°C 71% Calm Calm -- 29.92 in1013.2 mb 0.00 in0.0 mm 0.00 in0.0 mm 0.00 in0.0 mm
01:15 AM 38.1°F3.4°C 29.5°F-1.4°C 71% Calm Calm -- 29.92 in1013.2 mb 0.00 in0.0 mm 0.00 in0.0 mm 0.00 in0.0 mm
01:20 AM 38.0°F3.3°C 29.3°F-1.5°C 71% Calm Calm -- 29.92 in1013.2 mb 0.00 in0.0 mm 0.00 in0.0 mm 0.00 in0.0 mm
01:25 AM 38.0°F3.3°C 29.3°F-1.5°C 71% Calm Calm -- 29.93 in1013.5 mb 0.00 in0.0 mm 0.00 in0.0 mm 0.00 in0.0 mm
01:30 AM 38.0°F3.3°C 29.3°F-1.5°C 71% Calm Calm -- 29.93 in1013.5 mb 0.00 in0.0 mm 0.00 in0.0 mm 0.00 in0.0 mm
01:35 AM 38.0°F3.3°C 29.3°F-1.5°C 71% Calm Calm -- 29.92 in1013.2 mb 0.00 in0.0 mm 0.00 in0.0 mm 0.00 in0.0 mm
01:40 AM 38.0°F3.3°C 29.3°F-1.5°C 71% Calm Calm -- 29.92 in1013.2 mb 0.00 in0.0 mm 0.00 in0.0 mm 0.00 in0.0 mm
01:45 AM 37.9°F3.3°C 29.7°F-1.3°C 72% Calm Calm -- 29.92 in1013.2 mb 0.00 in0.0 mm 0.00 in0.0 mm 0.00 in0.0 mm
01:50 AM 37.9°F3.3°C 29.7°F-1.3°C 72% Calm Calm -- 29.91 in1012.9 mb 0.00 in0.0 mm 0.00 in0.0 mm 0.00 in0.0 mm
01:55 AM 37.7°F3.2°C 29.5°F-1.4°C 72% Calm Calm -- 29.92 in1013.2 mb 0.00 in0.0 mm 0.00 in0.0 mm 0.00 in0.0 mm
02:00 AM 37.6°F3.1°C 29.3°F-1.5°C 72% Calm Calm -- 29.91 in1012.9 mb 0.00 in0.0 mm 0.00 in0.0 mm 0.00 in0.0 mm
02:05 AM 37.6°F3.1°C 29.3°F-1.5°C 72% Calm Calm -- 29.91 in1012.9 mb 0.00 in0.0 mm 0.00 in0.0 mm 0.00 in0.0 mm
02:10 AM 37.6°F3.1°C 29.3°F-1.5°C 72% Calm Calm -- 29.91 in1012.9 mb 0.00 in0.0 mm 0.00 in0.0 mm 0.00 in0.0 mm
02:15 AM 37.5°F3.1°C 29.7°F-1.3°C 73% Calm Calm -- 29.91 in1012.9 mb 0.00 in0.0 mm 0.00 in0.0 mm 0.00 in0.0 mm
02:20 AM 37.5°F3.1°C 29.7°F-1.3°C 73% Calm Calm -- 29.91 in1012.9 mb 0.00 in0.0 mm 0.00 in0.0 mm 0.00 in0.0 mm
02:25 AM 37.5°F3.1°C 29.3°F-1.5°C 72% Calm Calm -- 29.91 in1012.9 mb 0.00 in0.0 mm 0.00 in0.0 mm 0.00 in0.0 mm
02:30 AM 37.5°F3.1°C 29.3°F-1.5°C 72% Calm Calm -- 29.91 in1012.9 mb 0.00 in0.0 mm 0.00 in0.0 mm 0.00 in0.0 mm
02:35 AM 37.4°F3.0°C 29.3°F-1.5°C 72% Calm Calm -- 29.92 in1013.2 mb 0.00 in0.0 mm 0.00 in0.0 mm 0.00 in0.0 mm
02:40 AM 37.2°F2.9°C 29.1°F-1.6°C 72% Calm Calm -- 29.92 in1013.2 mb 0.00 in0.0 mm 0.00 in0.0 mm 0.00 in0.0 mm
02:45 AM 37.1°F2.8°C 29.1°F-1.6°C 73% Calm Calm -- 29.92 in1013.2 mb 0.00 in0.0 mm 0.00 in0.0 mm 0.00 in0.0 mm
02:50 AM 37.1°F2.8°C 29.1°F-1.6°C 73% Calm Calm -- 29.92 in1013.2 mb 0.00 in0.0 mm 0.00 in0.0 mm 0.00 in0.0 mm
02:55 AM 37.0°F2.8°C 29.1°F-1.6°C 73% Calm Calm -- 29.92 in1013.2 mb 0.00 in0.0 mm 0.00 in0.0 mm 0.00 in0.0 mm
03:00 AM 37.1°F2.8°C 29.1°F-1.6°C 73% Calm Calm -- 29.92 in1013.2 mb 0.00 in0.0 mm 0.00 in0.0 mm 0.00 in0.0 mm
03:05 AM 37.0°F2.8°C 29.1°F-1.6°C 73% Calm Calm -- 29.91 in1012.9 mb 0.00 in0.0 mm 0.00 in0.0 mm 0.00 in0.0 mm
03:10 AM 37.0°F2.8°C 29.1°F-1.6°C 73% Calm Calm -- 29.92 in1013.2 mb 0.00 in0.0 mm 0.00 in0.0 mm 0.00 in0.0 mm
03:15 AM 36.9°F2.7°C 28.9°F-1.7°C 73% Calm Calm -- 29.92 in1013.2 mb 0.00 in0.0 mm 0.00 in0.0 mm 0.00 in0.0 mm
03:20 AM 36.8°F2.7°C 28.9°F-1.7°C 73% Calm Calm -- 29.92 in1013.2 mb 0.00 in0.0 mm 0.00 in0.0 mm 0.00 in0.0 mm
03:25 AM 36.7°F2.6°C 28.9°F-1.7°C 73% Calm Calm -- 29.92 in1013.2 mb 0.00 in0.0 mm 0.00 in0.0 mm 0.00 in0.0 mm
03:30 AM 36.6°F2.6°C 28.9°F-1.7°C 73% Calm Calm -- 29.93 in1013.5 mb 0.00 in0.0 mm 0.00 in0.0 mm 0.00 in0.0 mm
03:35 AM 36.5°F2.5°C 28.9°F-1.7°C 74% Calm Calm -- 29.93 in1013.5 mb 0.00 in0.0 mm 0.00 in0.0 mm 0.00 in0.0 mm
03:40 AM 36.5°F2.5°C 28.9°F-1.7°C 74% Calm Calm -- 29.93 in1013.5 mb 0.00 in0.0 mm 0.00 in0.0 mm 0.00 in0.0 mm
03:45 AM 36.5°F2.5°C 28.9°F-1.7°C 74% Calm Calm -- 29.93 in1013.5 mb 0.00 in0.0 mm 0.00 in0.0 mm 0.00 in0.0 mm
03:50 AM 36.5°F2.5°C 28.9°F-1.7°C 74% Calm Calm -- 29.93 in1013.5 mb 0.00 in0.0 mm 0.00 in0.0 mm 0.00 in0.0 mm
03:55 AM 36.6°F2.6°C 29.1°F-1.6°C 74% Calm Calm -- 29.92 in1013.2 mb 0.00 in0.0 mm 0.00 in0.0 mm 0.00 in0.0 mm
04:00 AM 36.6°F2.6°C 29.1°F-1.6°C 74% Calm Calm -- 29.93 in1013.5 mb 0.00 in0.0 mm 0.00 in0.0 mm 0.00 in0.0 mm
04:05 AM 36.7°F2.6°C 29.1°F-1.6°C 74% Calm Calm -- 29.92 in1013.2 mb 0.00 in0.0 mm 0.00 in0.0 mm 0.00 in0.0 mm
04:10 AM 36.7°F2.6°C 29.1°F-1.6°C 74% Calm Calm -- 29.92 in1013.2 mb 0.00 in0.0 mm 0.00 in0.0 mm 0.00 in0.0 mm
04:15 AM 36.7°F2.6°C 29.1°F-1.6°C 74% Calm Calm -- 29.92 in1013.2 mb 0.00 in0.0 mm 0.00 in0.0 mm 0.00 in0.0 mm
04:20 AM 36.7°F2.6°C 29.1°F-1.6°C 74% Calm Calm -- 29.91 in1012.9 mb 0.00 in0.0 mm 0.00 in0.0 mm 0.00 in0.0 mm
04:25 AM 36.7°F2.6°C 29.1°F-1.6°C 74% Calm Calm -- 29.91 in1012.9 mb 0.00 in0.0 mm 0.00 in0.0 mm 0.00 in0.0 mm
04:30 AM 36.7°F2.6°C 28.9°F-1.7°C 73% Calm Calm -- 29.91 in1012.9 mb 0.00 in0.0 mm 0.00 in0.0 mm 0.00 in0.0 mm
04:35 AM 36.8°F2.7°C 28.9°F-1.7°C 73% Calm Calm -- 29.92 in1013.2 mb 0.00 in0.0 mm 0.00 in0.0 mm 0.00 in0.0 mm
04:40 AM 36.7°F2.6°C 28.9°F-1.7°C 73% Calm Calm -- 29.93 in1013.5 mb 0.00 in0.0 mm 0.00 in0.0 mm 0.00 in0.0 mm
04:45 AM 36.7°F2.6°C 28.9°F-1.7°C 73% Calm Calm -- 29.93 in1013.5 mb 0.00 in0.0 mm 0.00 in0.0 mm 0.00 in0.0 mm
04:50 AM 36.7°F2.6°C 28.9°F-1.7°C 73% Calm Calm -- 29.94 in1013.9 mb 0.00 in0.0 mm 0.00 in0.0 mm 0.00 in0.0 mm
04:55 AM 36.6°F2.6°C 28.9°F-1.7°C 73% Calm Calm -- 29.94 in1013.9 mb 0.00 in0.0 mm 0.00 in0.0 mm 0.00 in0.0 mm
05:00 AM 36.5°F2.5°C 28.9°F-1.7°C 74% Calm Calm -- 29.94 in1013.9 mb 0.00 in0.0 mm 0.00 in0.0 mm 0.00 in0.0 mm
05:05 AM 36.3°F2.4°C 28.8°F-1.8°C 74% Calm Calm -- 29.95 in1014.2 mb 0.00 in0.0 mm 0.00 in0.0 mm 0.00 in0.0 mm
05:10 AM 36.2°F2.3°C 28.6°F-1.9°C 74% Calm Calm -- 29.95 in1014.2 mb 0.00 in0.0 mm 0.00 in0.0 mm 0.00 in0.0 mm
05:15 AM 35.8°F2.1°C 28.4°F-2.0°C 74% Calm Calm -- 29.96 in1014.6 mb 0.00 in0.0 mm 0.00 in0.0 mm 0.00 in0.0 mm
05:20 AM 35.6°F2.0°C 28.4°F-2.0°C 75% Calm Calm -- 29.96 in1014.6 mb 0.00 in0.0 mm 0.00 in0.0 mm 0.00 in0.0 mm
05:25 AM 35.3°F1.8°C 28.0°F-2.2°C 75% Calm Calm -- 29.96 in1014.6 mb 0.00 in0.0 mm 0.00 in0.0 mm 0.00 in0.0 mm
05:30 AM 35.1°F1.7°C 28.2°F-2.1°C 76% Calm Calm -- 29.96 in1014.6 mb 0.00 in0.0 mm 0.00 in0.0 mm 0.00 in0.0 mm
05:35 AM 35.0°F1.7°C 28.6°F-1.9°C 77% Calm Calm -- 29.96 in1014.6 mb 0.00 in0.0 mm 0.00 in0.0 mm 0.00 in0.0 mm
05:40 AM 35.0°F1.7°C 28.6°F-1.9°C 77% Calm Calm -- 29.96 in1014.6 mb 0.00 in0.0 mm 0.00 in0.0 mm 0.00 in0.0 mm
05:45 AM 35.0°F1.7°C 28.6°F-1.9°C 77% Calm Calm -- 29.97 in1014.9 mb 0.00 in0.0 mm 0.00 in0.0 mm 0.00 in0.0 mm
05:50 AM 35.1°F1.7°C 28.6°F-1.9°C 77% Calm Calm -- 29.97 in1014.9 mb 0.00 in0.0 mm 0.00 in0.0 mm 0.00 in0.0 mm
05:55 AM 35.2°F1.8°C 28.8°F-1.8°C 77% Calm Calm -- 29.97 in1014.9 mb 0.00 in0.0 mm 0.00 in0.0 mm 0.00 in0.0 mm
06:00 AM 35.2°F1.8°C 28.8°F-1.8°C 77% Calm Calm -- 29.98 in1015.2 mb 0.00 in0.0 mm 0.00 in0.0 mm 0.00 in0.0 mm
06:05 AM 35.3°F1.8°C 28.8°F-1.8°C 77% Calm Calm -- 29.98 in1015.2 mb 0.00 in0.0 mm 0.00 in0.0 mm 0.00 in0.0 mm
06:10 AM 35.3°F1.8°C 28.8°F-1.8°C 77% Calm Calm -- 29.99 in1015.6 mb 0.00 in0.0 mm 0.00 in0.0 mm 0.00 in0.0 mm
06:15 AM 35.3°F1.8°C 28.8°F-1.8°C 77% Calm Calm -- 29.99 in1015.6 mb 0.00 in0.0 mm 0.00 in0.0 mm 0.00 in0.0 mm
06:20 AM 35.3°F1.8°C 28.8°F-1.8°C 77% Calm Calm -- 29.99 in1015.6 mb 0.00 in0.0 mm 0.00 in0.0 mm 0.00 in0.0 mm
06:25 AM 35.2°F1.8°C 28.8°F-1.8°C 77% 1.0 mph NW1.6 kmh NW -- 29.99 in1015.6 mb 0.00 in0.0 mm 0.00 in0.0 mm 0.00 in0.0 mm
06:30 AM 35.2°F1.8°C 28.8°F-1.8°C 77% 5.0 mph NW8.0 kmh NW 9.0 mph14.5 kmh 30.00 in1015.9 mb 0.00 in0.0 mm 0.00 in0.0 mm 0.00 in0.0 mm
06:35 AM 35.2°F1.8°C 28.8°F-1.8°C 77% 7.0 mph NW11.3 kmh NW -- 30.00 in1015.9 mb 0.00 in0.0 mm 0.00 in0.0 mm 0.00 in0.0 mm
06:40 AM 35.2°F1.8°C 28.4°F-2.0°C 76% 4.0 mph NW6.4 kmh NW -- 30.00 in1015.9 mb 0.00 in0.0 mm 0.00 in0.0 mm 0.00 in0.0 mm
06:45 AM 35.2°F1.8°C 28.4°F-2.0°C 76% Calm Calm -- 30.00 in1015.9 mb 0.00 in0.0 mm 0.00 in0.0 mm 0.00 in0.0 mm
06:50 AM 35.2°F1.8°C 28.4°F-2.0°C 76% Calm Calm -- 30.01 in1016.3 mb 0.00 in0.0 mm 0.00 in0.0 mm 0.00 in0.0 mm
06:55 AM 35.2°F1.8°C 28.4°F-2.0°C 76% Calm Calm 7.0 mph11.3 kmh 30.01 in1016.3 mb 0.00 in0.0 mm 0.00 in0.0 mm 0.00 in0.0 mm
07:00 AM 35.1°F1.7°C 28.2°F-2.1°C 76% Calm Calm -- 30.01 in1016.3 mb 0.00 in0.0 mm 0.00 in0.0 mm 0.00 in0.0 mm
07:05 AM 35.1°F1.7°C 28.6°F-1.9°C 77% 4.0 mph NW6.4 kmh NW -- 30.01 in1016.3 mb 0.00 in0.0 mm 0.00 in0.0 mm 0.00 in0.0 mm
07:10 AM 35.1°F1.7°C 28.6°F-1.9°C 77% Calm Calm -- 30.02 in1016.6 mb 0.00 in0.0 mm 0.00 in0.0 mm 0.00 in0.0 mm
07:15 AM 35.1°F1.7°C 28.2°F-2.1°C 76% 5.0 mph NW8.0 kmh NW -- 30.02 in1016.6 mb 0.00 in0.0 mm 0.00 in0.0 mm 0.00 in0.0 mm
07:20 AM 35.1°F1.7°C 28.2°F-2.1°C 76% 4.0 mph NW6.4 kmh NW 6.0 mph9.7 kmh 30.02 in1016.6 mb 0.00 in0.0 mm 0.00 in0.0 mm 0.00 in0.0 mm
07:25 AM 35.2°F1.8°C 28.4°F-2.0°C 76% 2.0 mph NW3.2 kmh NW -- 30.02 in1016.6 mb 0.00 in0.0 mm 0.00 in0.0 mm 0.00 in0.0 mm
07:30 AM 35.2°F1.8°C 28.4°F-2.0°C 76% Calm Calm -- 30.02 in1016.6 mb 0.00 in0.0 mm 0.00 in0.0 mm 0.00 in0.0 mm
07:35 AM 35.2°F1.8°C 28.0°F-2.2°C 75% 3.0 mph NW4.8 kmh NW -- 30.02 in1016.6 mb 0.00 in0.0 mm 0.00 in0.0 mm 0.00 in0.0 mm
07:40 AM 35.2°F1.8°C 27.9°F-2.3°C 74% 6.0 mph NW9.7 kmh NW -- 30.03 in1016.9 mb 0.00 in0.0 mm 0.00 in0.0 mm 0.00 in0.0 mm
07:45 AM 35.3°F1.8°C 27.9°F-2.3°C 74% 5.0 mph NW8.0 kmh NW 10.0 mph16.1 kmh 30.04 in1017.3 mb 0.00 in0.0 mm 0.00 in0.0 mm 0.00 in0.0 mm
07:50 AM 35.4°F1.9°C 27.7°F-2.4°C 73% 4.0 mph NW6.4 kmh NW -- 30.05 in1017.6 mb 0.00 in0.0 mm 0.00 in0.0 mm 0.00 in0.0 mm
07:55 AM 35.4°F1.9°C 27.7°F-2.4°C 73% 5.0 mph WNW8.0 kmh WNW -- 30.05 in1017.6 mb 0.00 in0.0 mm 0.00 in0.0 mm 0.00 in0.0 mm
08:00 AM 35.5°F1.9°C 27.7°F-2.4°C 73% 5.0 mph WNW8.0 kmh WNW -- 30.06 in1017.9 mb 0.00 in0.0 mm 0.00 in0.0 mm 0.00 in0.0 mm
08:05 AM 35.6°F2.0°C 27.5°F-2.5°C 72% 10.0 mph NW16.1 kmh NW -- 30.06 in1017.9 mb 0.00 in0.0 mm 0.00 in0.0 mm 0.00 in0.0 mm
08:10 AM 35.6°F2.0°C 27.5°F-2.5°C 72% 10.0 mph NW16.1 kmh NW 12.0 mph19.3 kmh 30.06 in1017.9 mb 0.00 in0.0 mm 0.00 in0.0 mm 0.00 in0.0 mm
08:15 AM 35.6°F2.0°C 27.5°F-2.5°C 72% 6.0 mph NW9.7 kmh NW -- 30.06 in1017.9 mb 0.00 in0.0 mm 0.00 in0.0 mm 0.00 in0.0 mm
08:20 AM 35.6°F2.0°C 27.5°F-2.5°C 72% 6.0 mph NW9.7 kmh NW -- 30.07 in1018.3 mb 0.00 in0.0 mm 0.00 in0.0 mm 0.00 in0.0 mm
08:25 AM 35.5°F1.9°C 27.3°F-2.6°C 72% 8.0 mph NW12.9 kmh NW -- 30.07 in1018.3 mb 0.00 in0.0 mm 0.00 in0.0 mm 0.00 in0.0 mm
08:30 AM 35.6°F2.0°C 27.5°F-2.5°C 72% 3.0 mph NW4.8 kmh NW -- 30.08 in1018.6 mb 0.00 in0.0 mm 0.00 in0.0 mm 0.00 in0.0 mm
08:35 AM 35.5°F1.9°C 27.3°F-2.6°C 72% 6.0 mph NW9.7 kmh NW 10.0 mph16.1 kmh 30.08 in1018.6 mb 0.00 in0.0 mm 0.00 in0.0 mm 0.00 in0.0 mm
08:40 AM 35.5°F1.9°C 27.3°F-2.6°C 72% 3.0 mph NW4.8 kmh NW -- 30.08 in1018.6 mb 0.00 in0.0 mm 0.00 in0.0 mm 0.00 in0.0 mm
08:45 AM 35.4°F1.9°C 27.0°F-2.8°C 71% 5.0 mph NW8.0 kmh NW -- 30.09 in1019.0 mb 0.00 in0.0 mm 0.00 in0.0 mm 0.00 in0.0 mm
08:50 AM 35.4°F1.9°C 27.0°F-2.8°C 71% 5.0 mph NNE8.0 kmh NNE -- 30.08 in1018.6 mb 0.00 in0.0 mm 0.00 in0.0 mm 0.00 in0.0 mm
08:55 AM 35.4°F1.9°C 27.0°F-2.8°C 71% 5.0 mph NNE8.0 kmh NNE -- 30.09 in1019.0 mb 0.00 in0.0 mm 0.00 in0.0 mm 0.00 in0.0 mm
09:00 AM 35.3°F1.8°C 26.8°F-2.9°C 71% 6.0 mph NE9.7 kmh NE 12.0 mph19.3 kmh 30.09 in1019.0 mb 0.00 in0.0 mm 0.00 in0.0 mm 0.00 in0.0 mm
09:05 AM 35.2°F1.8°C 26.8°F-2.9°C 71% 9.0 mph N14.5 kmh N -- 30.09 in1019.0 mb 0.00 in0.0 mm 0.00 in0.0 mm 0.00 in0.0 mm
09:10 AM 35.1°F1.7°C 26.6°F-3.0°C 71% 3.0 mph NE4.8 kmh NE -- 30.09 in1019.0 mb 0.00 in0.0 mm 0.00 in0.0 mm 0.00 in0.0 mm
09:15 AM 35.0°F1.7°C 27.0°F-2.8°C 72% 10.0 mph NNE16.1 kmh NNE -- 30.10 in1019.3 mb 0.00 in0.0 mm 0.00 in0.0 mm 0.00 in0.0 mm
09:20 AM 34.8°F1.6°C 26.8°F-2.9°C 72% 7.0 mph NNE11.3 kmh NNE -- 30.11 in1019.6 mb 0.00 in0.0 mm 0.00 in0.0 mm 0.00 in0.0 mm
09:25 AM 34.5°F1.4°C 26.4°F-3.1°C 72% 6.0 mph NNE9.7 kmh NNE 18.0 mph29.0 kmh 30.11 in1019.6 mb 0.00 in0.0 mm 0.00 in0.0 mm 0.00 in0.0 mm
09:30 AM 34.2°F1.2°C 26.4°F-3.1°C 73% 11.0 mph N17.7 kmh N -- 30.11 in1019.6 mb 0.00 in0.0 mm 0.00 in0.0 mm 0.00 in0.0 mm
09:35 AM 33.9°F1.1°C 26.2°F-3.2°C 73% 12.0 mph NNE19.3 kmh NNE -- 30.12 in1020.0 mb 0.00 in0.0 mm 0.00 in0.0 mm 0.00 in0.0 mm
09:40 AM 33.7°F0.9°C 26.2°F-3.2°C 74% 5.0 mph NNE8.0 kmh NNE -- 30.12 in1020.0 mb 0.00 in0.0 mm 0.00 in0.0 mm 0.00 in0.0 mm
09:45 AM 33.6°F0.9°C 26.2°F-3.2°C 74% 10.0 mph N16.1 kmh N -- 30.13 in1020.3 mb 0.00 in0.0 mm 0.00 in0.0 mm 0.00 in0.0 mm
09:50 AM 33.5°F0.8°C 26.1°F-3.3°C 74% 13.0 mph NE20.9 kmh NE 17.0 mph27.4 kmh 30.13 in1020.3 mb 0.00 in0.0 mm 0.00 in0.0 mm 0.00 in0.0 mm
09:55 AM 33.4°F0.8°C 26.1°F-3.3°C 74% 10.0 mph NNE16.1 kmh NNE -- 30.14 in1020.7 mb 0.00 in0.0 mm 0.00 in0.0 mm 0.00 in0.0 mm
10:00 AM 33.3°F0.7°C 26.2°F-3.2°C 75% 7.0 mph NNE11.3 kmh NNE -- 30.14 in1020.7 mb 0.00 in0.0 mm 0.00 in0.0 mm 0.00 in0.0 mm
10:05 AM 33.2°F0.7°C 26.2°F-3.2°C 75% 7.0 mph NE11.3 kmh NE -- 30.15 in1021.0 mb 0.00 in0.0 mm 0.00 in0.0 mm 0.00 in0.0 mm
10:10 AM 32.9°F0.5°C 25.9°F-3.4°C 75% 10.0 mph N16.1 kmh N -- 30.15 in1021.0 mb 0.00 in0.0 mm 0.00 in0.0 mm 0.00 in0.0 mm
10:15 AM 32.3°F0.2°C 25.0°F-3.9°C 74% 13.0 mph N20.9 kmh N 19.0 mph30.6 kmh 30.16 in1021.3 mb 0.00 in0.0 mm 0.00 in0.0 mm 0.00 in0.0 mm
10:20 AM 31.3°F-0.4°C 23.7°F-4.6°C 73% 13.0 mph N20.9 kmh N -- 30.17 in1021.7 mb 0.00 in0.0 mm 0.00 in0.0 mm 0.00 in0.0 mm
10:25 AM 30.5°F-0.8°C 22.6°F-5.2°C 72% 16.0 mph NW25.7 kmh NW -- 30.17 in1021.7 mb 0.00 in0.0 mm 0.00 in0.0 mm 0.00 in0.0 mm
10:30 AM 29.9°F-1.2°C 21.2°F-6.0°C 70% 8.0 mph NW12.9 kmh NW -- 30.18 in1022.0 mb 0.00 in0.0 mm 0.00 in0.0 mm 0.00 in0.0 mm
10:35 AM 29.4°F-1.4°C 19.9°F-6.7°C 67% 10.0 mph NNE16.1 kmh NNE -- 30.18 in1022.0 mb 0.00 in0.0 mm 0.00 in0.0 mm 0.00 in0.0 mm
10:40 AM 28.7°F-1.8°C 17.4°F-8.1°C 62% 11.0 mph N17.7 kmh N 20.0 mph32.2 kmh 30.19 in1022.4 mb 0.00 in0.0 mm 0.00 in0.0 mm 0.00 in0.0 mm
10:45 AM 28.0°F-2.2°C 16.0°F-8.9°C 60% 14.0 mph NW22.5 kmh NW -- 30.19 in1022.4 mb 0.00 in0.0 mm 0.00 in0.0 mm 0.00 in0.0 mm
10:50 AM 27.6°F-2.4°C 16.0°F-8.9°C 61% 13.0 mph NW20.9 kmh NW -- 30.18 in1022.0 mb 0.00 in0.0 mm 0.00 in0.0 mm 0.00 in0.0 mm
10:55 AM 27.5°F-2.5°C 15.8°F-9.0°C 61% 10.0 mph NNE16.1 kmh NNE -- 30.19 in1022.4 mb 0.00 in0.0 mm 0.00 in0.0 mm 0.00 in0.0 mm
11:00 AM 27.1°F-2.7°C 14.4°F-9.8°C 58% 24.0 mph N38.6 kmh N -- 30.20 in1022.7 mb 0.00 in0.0 mm 0.00 in0.0 mm 0.00 in0.0 mm
11:05 AM 26.7°F-2.9°C 13.3°F-10.4°C 56% 15.0 mph N24.1 kmh N 24.0 mph38.6 kmh 30.20 in1022.7 mb 0.00 in0.0 mm 0.00 in0.0 mm 0.00 in0.0 mm
11:10 AM 26.7°F-2.9°C 13.6°F-10.2°C 57% 9.0 mph WNW14.5 kmh WNW -- 30.20 in1022.7 mb 0.00 in0.0 mm 0.00 in0.0 mm 0.00 in0.0 mm
11:15 AM 26.7°F-2.9°C 14.0°F-10.0°C 58% 9.0 mph N14.5 kmh N -- 30.21 in1023.0 mb 0.00 in0.0 mm 0.00 in0.0 mm 0.00 in0.0 mm
11:20 AM 26.6°F-3.0°C 14.2°F-9.9°C 59% 20.0 mph NW32.2 kmh NW -- 30.21 in1023.0 mb 0.00 in0.0 mm 0.00 in0.0 mm 0.00 in0.0 mm
11:25 AM 26.3°F-3.2°C 14.4°F-9.8°C 60% 11.0 mph NW17.7 kmh NW -- 30.23 in1023.7 mb 0.00 in0.0 mm 0.00 in0.0 mm 0.00 in0.0 mm
11:30 AM 26.1°F-3.3°C 14.2°F-9.9°C 60% 14.0 mph NW22.5 kmh NW 24.0 mph38.6 kmh 30.23 in1023.7 mb 0.00 in0.0 mm 0.00 in0.0 mm 0.00 in0.0 mm
11:35 AM 25.8°F-3.4°C 13.1°F-10.5°C 58% 9.0 mph N14.5 kmh N -- 30.23 in1023.7 mb 0.00 in0.0 mm 0.00 in0.0 mm 0.00 in0.0 mm
11:40 AM 25.2°F-3.8°C 12.0°F-11.1°C 57% 15.0 mph NNE24.1 kmh NNE -- 30.23 in1023.7 mb 0.00 in0.0 mm 0.00 in0.0 mm 0.00 in0.0 mm
11:45 AM 24.9°F-3.9°C 11.8°F-11.2°C 57% 9.0 mph NW14.5 kmh NW -- 30.24 in1024.0 mb 0.00 in0.0 mm 0.00 in0.0 mm 0.00 in0.0 mm
11:50 AM 24.7°F-4.1°C 11.1°F-11.6°C 56% 13.0 mph N20.9 kmh N -- 30.24 in1024.0 mb 0.00 in0.0 mm 0.00 in0.0 mm 0.00 in0.0 mm
11:55 AM 24.4°F-4.2°C 10.2°F-12.1°C 54% 22.0 mph NW35.4 kmh NW 21.0 mph33.8 kmh 30.25 in1024.4 mb 0.00 in0.0 mm 0.00 in0.0 mm 0.00 in0.0 mm
12:00 PM 24.1°F-4.4°C 8.6°F-13.0°C 51% 12.0 mph NW19.3 kmh NW -- 30.25 in1024.4 mb 0.00 in0.0 mm 0.00 in0.0 mm 0.00 in0.0 mm
12:05 PM 23.8°F-4.6°C 7.3°F-13.7°C 49% 9.0 mph NW14.5 kmh NW -- 30.25 in1024.4 mb 0.00 in0.0 mm 0.00 in0.0 mm 0.00 in0.0 mm
12:10 PM 23.7°F-4.6°C 7.0°F-13.9°C 48% 11.0 mph N17.7 kmh N -- 30.25 in1024.4 mb 0.00 in0.0 mm 0.00 in0.0 mm 0.00 in0.0 mm
12:15 PM 23.3°F-4.8°C 4.6°F-15.2°C 44% 11.0 mph NNE17.7 kmh NNE -- 30.25 in1024.4 mb 0.00 in0.0 mm 0.00 in0.0 mm 0.00 in0.0 mm
12:20 PM 22.8°F-5.1°C 3.7°F-15.7°C 43% 13.0 mph NW20.9 kmh NW 20.0 mph32.2 kmh 30.26 in1024.7 mb 0.00 in0.0 mm 0.00 in0.0 mm 0.00 in0.0 mm
12:25 PM 22.6°F-5.2°C 3.0°F-16.1°C 42% 11.0 mph N17.7 kmh N -- 30.27 in1025.1 mb 0.00 in0.0 mm 0.00 in0.0 mm 0.00 in0.0 mm
12:30 PM 22.6°F-5.2°C 4.1°F-15.5°C 44% 7.0 mph NNE11.3 kmh NNE -- 30.26 in1024.7 mb 0.00 in0.0 mm 0.00 in0.0 mm 0.00 in0.0 mm
12:35 PM 22.7°F-5.2°C 4.5°F-15.3°C 45% 10.0 mph NNE16.1 kmh NNE -- 30.26 in1024.7 mb 0.00 in0.0 mm 0.00 in0.0 mm 0.00 in0.0 mm
12:40 PM 22.6°F-5.2°C 4.5°F-15.3°C 45% 11.0 mph NW17.7 kmh NW -- 30.26 in1024.7 mb 0.00 in0.0 mm 0.00 in0.0 mm 0.00 in0.0 mm
12:45 PM 22.6°F-5.2°C 5.0°F-15.0°C 46% 12.0 mph NW19.3 kmh NW 17.0 mph27.4 kmh 30.27 in1025.1 mb 0.00 in0.0 mm 0.00 in0.0 mm 0.00 in0.0 mm
12:50 PM 22.7°F-5.2°C 5.5°F-14.7°C 47% 13.0 mph N20.9 kmh N -- 30.27 in1025.1 mb 0.00 in0.0 mm 0.00 in0.0 mm 0.00 in0.0 mm
12:55 PM 22.7°F-5.2°C 5.9°F-14.5°C 48% 13.0 mph NNE20.9 kmh NNE -- 30.27 in1025.1 mb 0.00 in0.0 mm 0.00 in0.0 mm 0.00 in0.0 mm
01:00 PM 22.8°F-5.1°C 6.6°F-14.1°C 49% 8.0 mph N12.9 kmh N -- 30.28 in1025.4 mb 0.00 in0.0 mm 0.00 in0.0 mm 0.00 in0.0 mm
01:05 PM 23.0°F-5.0°C 7.2°F-13.8°C 50% 12.0 mph N19.3 kmh N -- 30.29 in1025.7 mb 0.00 in0.0 mm 0.00 in0.0 mm 0.00 in0.0 mm
01:10 PM 23.2°F-4.9°C 8.2°F-13.2°C 52% 12.0 mph NW19.3 kmh NW 21.0 mph33.8 kmh 30.29 in1025.7 mb 0.00 in0.0 mm 0.00 in0.0 mm 0.00 in0.0 mm
01:15 PM 23.2°F-4.9°C 8.6°F-13.0°C 53% 14.0 mph NW22.5 kmh NW -- 30.28 in1025.4 mb 0.00 in0.0 mm 0.00 in0.0 mm 0.00 in0.0 mm
01:20 PM 23.2°F-4.9°C 8.6°F-13.0°C 53% 14.0 mph NW22.5 kmh NW -- 30.28 in1025.4 mb 0.00 in0.0 mm 0.00 in0.0 mm 0.00 in0.0 mm
01:25 PM 23.2°F-4.9°C 8.2°F-13.2°C 52% 14.0 mph NW22.5 kmh NW -- 30.28 in1025.4 mb 0.00 in0.0 mm 0.00 in0.0 mm 0.00 in0.0 mm
01:30 PM 23.1°F-4.9°C 7.3°F-13.7°C 50% 11.0 mph NW17.7 kmh NW -- 30.28 in1025.4 mb 0.00 in0.0 mm 0.00 in0.0 mm 0.00 in0.0 mm
01:35 PM 23.1°F-4.9°C 6.8°F-14.0°C 49% 11.0 mph N17.7 kmh N 20.0 mph32.2 kmh 30.27 in1025.1 mb 0.00 in0.0 mm 0.00 in0.0 mm 0.00 in0.0 mm
01:40 PM 23.2°F-4.9°C 6.8°F-14.0°C 49% 12.0 mph NW19.3 kmh NW -- 30.28 in1025.4 mb 0.00 in0.0 mm 0.00 in0.0 mm 0.00 in0.0 mm
01:45 PM 23.2°F-4.9°C 6.8°F-14.0°C 49% 7.0 mph WNW11.3 kmh WNW -- 30.28 in1025.4 mb 0.00 in0.0 mm 0.00 in0.0 mm 0.00 in0.0 mm
01:50 PM 23.2°F-4.9°C 6.8°F-14.0°C 49% 6.0 mph N9.7 kmh N -- 30.28 in1025.4 mb 0.00 in0.0 mm 0.00 in0.0 mm 0.00 in0.0 mm
01:55 PM 23.5°F-4.7°C 7.7°F-13.5°C 50% 9.0 mph NW14.5 kmh NW -- 30.29 in1025.7 mb 0.00 in0.0 mm 0.00 in0.0 mm 0.00 in0.0 mm
02:00 PM 23.7°F-4.6°C 7.0°F-13.9°C 48% 10.0 mph NW16.1 kmh NW 16.0 mph25.7 kmh 30.29 in1025.7 mb 0.00 in0.0 mm 0.00 in0.0 mm 0.00 in0.0 mm
02:05 PM 23.5°F-4.7°C 5.9°F-14.5°C 46% 13.0 mph N20.9 kmh N -- 30.28 in1025.4 mb 0.00 in0.0 mm 0.00 in0.0 mm 0.00 in0.0 mm
02:10 PM 23.3°F-4.8°C 6.1°F-14.4°C 47% 17.0 mph NW27.4 kmh NW -- 30.28 in1025.4 mb 0.00 in0.0 mm 0.00 in0.0 mm 0.00 in0.0 mm
02:15 PM 23.1°F-4.9°C 4.5°F-15.3°C 44% 12.0 mph NNE19.3 kmh NNE -- 30.28 in1025.4 mb 0.00 in0.0 mm 0.00 in0.0 mm 0.00 in0.0 mm
02:20 PM 22.8°F-5.1°C 4.6°F-15.2°C 45% 12.0 mph N19.3 kmh N -- 30.27 in1025.1 mb 0.00 in0.0 mm 0.00 in0.0 mm 0.00 in0.0 mm
02:25 PM 23.1°F-4.9°C 3.6°F-15.8°C 42% 19.0 mph N30.6 kmh N 21.0 mph33.8 kmh 30.28 in1025.4 mb 0.00 in0.0 mm 0.00 in0.0 mm 0.00 in0.0 mm
02:30 PM 23.0°F-5.0°C 2.8°F-16.2°C 41% 11.0 mph NNE17.7 kmh NNE -- 30.28 in1025.4 mb 0.00 in0.0 mm 0.00 in0.0 mm 0.00 in0.0 mm
02:35 PM 22.8°F-5.1°C 3.2°F-16.0°C 42% 12.0 mph N19.3 kmh N -- 30.28 in1025.4 mb 0.00 in0.0 mm 0.00 in0.0 mm 0.00 in0.0 mm
02:40 PM 22.7°F-5.2°C 3.6°F-15.8°C 43% 12.0 mph NW19.3 kmh NW -- 30.28 in1025.4 mb 0.00 in0.0 mm 0.00 in0.0 mm 0.00 in0.0 mm
02:45 PM 22.7°F-5.2°C 3.6°F-15.8°C 43% 14.0 mph NW22.5 kmh NW -- 30.28 in1025.4 mb 0.00 in0.0 mm 0.00 in0.0 mm 0.00 in0.0 mm
02:50 PM 22.8°F-5.1°C 4.3°F-15.4°C 44% 9.0 mph WNW14.5 kmh WNW 17.0 mph27.4 kmh 30.28 in1025.4 mb 0.00 in0.0 mm 0.00 in0.0 mm 0.00 in0.0 mm
02:55 PM 23.0°F-5.0°C 4.5°F-15.3°C 44% 10.0 mph N16.1 kmh N -- 30.28 in1025.4 mb 0.00 in0.0 mm 0.00 in0.0 mm 0.00 in0.0 mm
03:00 PM 23.1°F-4.9°C 5.0°F-15.0°C 45% 11.0 mph NNE17.7 kmh NNE -- 30.28 in1025.4 mb 0.00 in0.0 mm 0.00 in0.0 mm 0.00 in0.0 mm
03:05 PM 23.1°F-4.9°C 5.5°F-14.7°C 46% 10.0 mph NNE16.1 kmh NNE -- 30.28 in1025.4 mb 0.00 in0.0 mm 0.00 in0.0 mm 0.00 in0.0 mm
03:10 PM 23.2°F-4.9°C 5.5°F-14.7°C 46% 4.0 mph N6.4 kmh N -- 30.28 in1025.4 mb 0.00 in0.0 mm 0.00 in0.0 mm 0.00 in0.0 mm
03:15 PM 23.3°F-4.8°C 5.7°F-14.6°C 46% 10.0 mph NW16.1 kmh NW 15.0 mph24.1 kmh 30.29 in1025.7 mb 0.00 in0.0 mm 0.00 in0.0 mm 0.00 in0.0 mm
03:20 PM 23.3°F-4.8°C 6.1°F-14.4°C 47% 5.0 mph N8.0 kmh N -- 30.29 in1025.7 mb 0.00 in0.0 mm 0.00 in0.0 mm 0.00 in0.0 mm
03:25 PM 23.7°F-4.6°C 7.0°F-13.9°C 48% 9.0 mph N14.5 kmh N -- 30.29 in1025.7 mb 0.00 in0.0 mm 0.00 in0.0 mm 0.00 in0.0 mm
03:30 PM 24.1°F-4.4°C 6.8°F-14.0°C 47% 5.0 mph NW8.0 kmh NW -- 30.29 in1025.7 mb 0.00 in0.0 mm 0.00 in0.0 mm 0.00 in0.0 mm
03:35 PM 24.5°F-4.2°C 5.7°F-14.6°C 44% 6.0 mph N9.7 kmh N -- 30.29 in1025.7 mb 0.00 in0.0 mm 0.00 in0.0 mm 0.00 in0.0 mm
03:40 PM 24.6°F-4.1°C 5.4°F-14.8°C 43% 6.0 mph N9.7 kmh N 19.0 mph30.6 kmh 30.29 in1025.7 mb 0.00 in0.0 mm 0.00 in0.0 mm 0.00 in0.0 mm
03:45 PM 24.4°F-4.2°C 4.6°F-15.2°C 42% 11.0 mph NNE17.7 kmh NNE -- 30.30 in1026.1 mb 0.00 in0.0 mm 0.00 in0.0 mm 0.00 in0.0 mm
03:50 PM 24.1°F-4.4°C 4.3°F-15.4°C 42% 6.0 mph NNE9.7 kmh NNE -- 30.30 in1026.1 mb 0.00 in0.0 mm 0.00 in0.0 mm 0.00 in0.0 mm
03:55 PM 24.1°F-4.4°C 4.3°F-15.4°C 42% 6.0 mph NW9.7 kmh NW -- 30.30 in1026.1 mb 0.00 in0.0 mm 0.00 in0.0 mm 0.00 in0.0 mm
04:00 PM 24.5°F-4.2°C 4.6°F-15.2°C 42% 13.0 mph W20.9 kmh W -- 30.30 in1026.1 mb 0.00 in0.0 mm 0.00 in0.0 mm 0.00 in0.0 mm
04:05 PM 24.4°F-4.2°C 4.1°F-15.5°C 41% 11.0 mph NW17.7 kmh NW 18.0 mph29.0 kmh 30.31 in1026.4 mb 0.00 in0.0 mm 0.00 in0.0 mm 0.00 in0.0 mm
04:10 PM 24.3°F-4.3°C 4.5°F-15.3°C 42% 11.0 mph N17.7 kmh N -- 30.31 in1026.4 mb 0.00 in0.0 mm 0.00 in0.0 mm 0.00 in0.0 mm
04:15 PM 24.2°F-4.3°C 4.5°F-15.3°C 42% 5.0 mph NW8.0 kmh NW -- 30.31 in1026.4 mb 0.00 in0.0 mm 0.00 in0.0 mm 0.00 in0.0 mm
04:20 PM 24.2°F-4.3°C 4.5°F-15.3°C 42% 14.0 mph NW22.5 kmh NW -- 30.31 in1026.4 mb 0.00 in0.0 mm 0.00 in0.0 mm 0.00 in0.0 mm
04:25 PM 24.2°F-4.3°C 5.0°F-15.0°C 43% 10.0 mph NW16.1 kmh NW -- 30.31 in1026.4 mb 0.00 in0.0 mm 0.00 in0.0 mm 0.00 in0.0 mm
04:30 PM 24.3°F-4.3°C 5.0°F-15.0°C 43% 10.0 mph N16.1 kmh N 18.0 mph29.0 kmh 30.31 in1026.4 mb 0.00 in0.0 mm 0.00 in0.0 mm 0.00 in0.0 mm
04:35 PM 24.5°F-4.2°C 5.2°F-14.9°C 43% 12.0 mph NW19.3 kmh NW -- 30.31 in1026.4 mb 0.00 in0.0 mm 0.00 in0.0 mm 0.00 in0.0 mm
04:40 PM 24.3°F-4.3°C 5.5°F-14.7°C 44% 16.0 mph NW25.7 kmh NW -- 30.32 in1026.8 mb 0.00 in0.0 mm 0.00 in0.0 mm 0.00 in0.0 mm
04:45 PM 24.1°F-4.4°C 5.4°F-14.8°C 44% 10.0 mph NW16.1 kmh NW -- 30.32 in1026.8 mb 0.00 in0.0 mm 0.00 in0.0 mm 0.00 in0.0 mm
04:50 PM 24.3°F-4.3°C 5.5°F-14.7°C 44% 7.0 mph N11.3 kmh N -- 30.32 in1026.8 mb 0.00 in0.0 mm 0.00 in0.0 mm 0.00 in0.0 mm
04:55 PM 24.1°F-4.4°C 5.9°F-14.5°C 45% 9.0 mph NW14.5 kmh NW 18.0 mph29.0 kmh 30.33 in1027.1 mb 0.00 in0.0 mm 0.00 in0.0 mm 0.00 in0.0 mm
05:00 PM 24.1°F-4.4°C 5.4°F-14.8°C 44% 9.0 mph WNW14.5 kmh WNW -- 30.33 in1027.1 mb 0.00 in0.0 mm 0.00 in0.0 mm 0.00 in0.0 mm
05:05 PM 24.2°F-4.3°C 5.5°F-14.7°C 44% 11.0 mph N17.7 kmh N -- 30.33 in1027.1 mb 0.00 in0.0 mm 0.00 in0.0 mm 0.00 in0.0 mm
05:10 PM 24.0°F-4.4°C 4.8°F-15.1°C 43% 7.0 mph WNW11.3 kmh WNW -- 30.33 in1027.1 mb 0.00 in0.0 mm 0.00 in0.0 mm 0.00 in0.0 mm
05:15 PM 23.9°F-4.5°C 4.1°F-15.5°C 42% 15.0 mph NW24.1 kmh NW -- 30.34 in1027.4 mb 0.00 in0.0 mm 0.00 in0.0 mm 0.00 in0.0 mm
05:20 PM 23.8°F-4.6°C 3.6°F-15.8°C 41% 13.0 mph NW20.9 kmh NW 21.0 mph33.8 kmh 30.35 in1027.8 mb 0.00 in0.0 mm 0.00 in0.0 mm 0.00 in0.0 mm
05:25 PM 23.5°F-4.7°C 2.8°F-16.2°C 40% 7.0 mph W11.3 kmh W -- 30.35 in1027.8 mb 0.00 in0.0 mm 0.00 in0.0 mm 0.00 in0.0 mm
05:30 PM 23.2°F-4.9°C 2.5°F-16.4°C 40% 13.0 mph NW20.9 kmh NW -- 30.35 in1027.8 mb 0.00 in0.0 mm 0.00 in0.0 mm 0.00 in0.0 mm
05:35 PM 22.9°F-5.1°C 2.7°F-16.3°C 41% 11.0 mph N17.7 kmh N -- 30.35 in1027.8 mb 0.00 in0.0 mm 0.00 in0.0 mm 0.00 in0.0 mm
05:40 PM 22.8°F-5.1°C 2.7°F-16.3°C 41% 10.0 mph NW16.1 kmh NW -- 30.36 in1028.1 mb 0.00 in0.0 mm 0.00 in0.0 mm 0.00 in0.0 mm
05:45 PM 22.6°F-5.2°C 3.0°F-16.1°C 42% 10.0 mph NW16.1 kmh NW 13.0 mph20.9 kmh 30.36 in1028.1 mb 0.00 in0.0 mm 0.00 in0.0 mm 0.00 in0.0 mm
05:50 PM 22.3°F-5.4°C 2.7°F-16.3°C 42% 8.0 mph NW12.9 kmh NW -- 30.36 in1028.1 mb 0.00 in0.0 mm 0.00 in0.0 mm 0.00 in0.0 mm
05:55 PM 22.1°F-5.5°C 3.0°F-16.1°C 43% 9.0 mph NW14.5 kmh NW -- 30.37 in1028.4 mb 0.00 in0.0 mm 0.00 in0.0 mm 0.00 in0.0 mm
06:00 PM 21.7°F-5.7°C 2.7°F-16.3°C 43% 7.0 mph NNE11.3 kmh NNE -- 30.37 in1028.4 mb 0.00 in0.0 mm 0.00 in0.0 mm 0.00 in0.0 mm
06:05 PM 21.4°F-5.9°C 2.8°F-16.2°C 44% 10.0 mph NNE16.1 kmh NNE -- 30.37 in1028.4 mb 0.00 in0.0 mm 0.00 in0.0 mm 0.00 in0.0 mm
06:10 PM 21.1°F-6.1°C 3.0°F-16.1°C 45% 13.0 mph NW20.9 kmh NW 13.0 mph20.9 kmh 30.38 in1028.8 mb 0.00 in0.0 mm 0.00 in0.0 mm 0.00 in0.0 mm
06:15 PM 20.9°F-6.2°C 3.4°F-15.9°C 46% 13.0 mph NW20.9 kmh NW -- 30.38 in1028.8 mb 0.00 in0.0 mm 0.00 in0.0 mm 0.00 in0.0 mm
06:20 PM 20.6°F-6.3°C 2.7°F-16.3°C 45% 10.0 mph NW16.1 kmh NW -- 30.38 in1028.8 mb 0.00 in0.0 mm 0.00 in0.0 mm 0.00 in0.0 mm
06:25 PM 20.5°F-6.4°C 3.0°F-16.1°C 46% 10.0 mph NW16.1 kmh NW -- 30.38 in1028.8 mb 0.00 in0.0 mm 0.00 in0.0 mm 0.00 in0.0 mm
06:30 PM 20.3°F-6.5°C 2.8°F-16.2°C 46% 6.0 mph W9.7 kmh W -- 30.39 in1029.1 mb 0.00 in0.0 mm 0.00 in0.0 mm 0.00 in0.0 mm
06:35 PM 20.1°F-6.6°C 2.7°F-16.3°C 46% 8.0 mph NW12.9 kmh NW 15.0 mph24.1 kmh 30.39 in1029.1 mb 0.00 in0.0 mm 0.00 in0.0 mm 0.00 in0.0 mm
06:40 PM 20.0°F-6.7°C 2.5°F-16.4°C 46% 9.0 mph NW14.5 kmh NW -- 30.39 in1029.1 mb 0.00 in0.0 mm 0.00 in0.0 mm 0.00 in0.0 mm
06:45 PM 19.9°F-6.7°C 2.5°F-16.4°C 46% 5.0 mph NW8.0 kmh NW -- 30.40 in1029.5 mb 0.00 in0.0 mm 0.00 in0.0 mm 0.00 in0.0 mm
06:50 PM 19.8°F-6.8°C 2.8°F-16.2°C 47% 5.0 mph NW8.0 kmh NW -- 30.40 in1029.5 mb 0.00 in0.0 mm 0.00 in0.0 mm 0.00 in0.0 mm
06:55 PM 19.7°F-6.8°C 2.8°F-16.2°C 47% 3.0 mph NW4.8 kmh NW -- 30.40 in1029.5 mb 0.00 in0.0 mm 0.00 in0.0 mm 0.00 in0.0 mm
07:00 PM 19.5°F-6.9°C 2.7°F-16.3°C 47% 5.0 mph NW8.0 kmh NW 10.0 mph16.1 kmh 30.40 in1029.5 mb 0.00 in0.0 mm 0.00 in0.0 mm 0.00 in0.0 mm
07:05 PM 19.4°F-7.0°C 2.5°F-16.4°C 47% 5.0 mph NW8.0 kmh NW -- 30.40 in1029.5 mb 0.00 in0.0 mm 0.00 in0.0 mm 0.00 in0.0 mm
07:10 PM 19.2°F-7.1°C 2.3°F-16.5°C 47% 3.0 mph NW4.8 kmh NW -- 30.41 in1029.8 mb 0.00 in0.0 mm 0.00 in0.0 mm 0.00 in0.0 mm
07:15 PM 19.1°F-7.2°C 2.1°F-16.6°C 47% 4.0 mph NW6.4 kmh NW -- 30.41 in1029.8 mb 0.00 in0.0 mm 0.00 in0.0 mm 0.00 in0.0 mm
07:20 PM 19.0°F-7.2°C 2.7°F-16.3°C 48% 3.0 mph NW4.8 kmh NW -- 30.41 in1029.8 mb 0.00 in0.0 mm 0.00 in0.0 mm 0.00 in0.0 mm
07:25 PM 18.9°F-7.3°C 2.5°F-16.4°C 48% 2.0 mph NW3.2 kmh NW 8.0 mph12.9 kmh 30.41 in1029.8 mb 0.00 in0.0 mm 0.00 in0.0 mm 0.00 in0.0 mm
07:30 PM 18.8°F-7.3°C 2.5°F-16.4°C 48% 5.0 mph NW8.0 kmh NW -- 30.41 in1029.8 mb 0.00 in0.0 mm 0.00 in0.0 mm 0.00 in0.0 mm
07:35 PM 18.7°F-7.4°C 2.3°F-16.5°C 48% 4.0 mph NW6.4 kmh NW -- 30.42 in1030.1 mb 0.00 in0.0 mm 0.00 in0.0 mm 0.00 in0.0 mm
07:40 PM 18.6°F-7.4°C 2.3°F-16.5°C 48% 2.0 mph NW3.2 kmh NW -- 30.42 in1030.1 mb 0.00 in0.0 mm 0.00 in0.0 mm 0.00 in0.0 mm
07:45 PM 18.5°F-7.5°C 2.1°F-16.6°C 48% Calm Calm -- 30.42 in1030.1 mb 0.00 in0.0 mm 0.00 in0.0 mm 0.00 in0.0 mm
07:50 PM 18.5°F-7.5°C 2.5°F-16.4°C 49% 1.0 mph NW1.6 kmh NW 6.0 mph9.7 kmh 30.43 in1030.5 mb 0.00 in0.0 mm 0.00 in0.0 mm 0.00 in0.0 mm
07:55 PM 18.3°F-7.6°C 2.5°F-16.4°C 49% 2.0 mph NW3.2 kmh NW -- 30.43 in1030.5 mb 0.00 in0.0 mm 0.00 in0.0 mm 0.00 in0.0 mm
08:00 PM 18.2°F-7.7°C 2.3°F-16.5°C 49% 1.0 mph NW1.6 kmh NW -- 30.43 in1030.5 mb 0.00 in0.0 mm 0.00 in0.0 mm 0.00 in0.0 mm
08:05 PM 18.0°F-7.8°C 2.1°F-16.6°C 49% 2.0 mph NW3.2 kmh NW -- 30.44 in1030.8 mb 0.00 in0.0 mm 0.00 in0.0 mm 0.00 in0.0 mm
08:10 PM 17.9°F-7.8°C 2.5°F-16.4°C 50% 5.0 mph NW8.0 kmh NW -- 30.44 in1030.8 mb 0.00 in0.0 mm 0.00 in0.0 mm 0.00 in0.0 mm
08:15 PM 17.9°F-7.8°C 2.5°F-16.4°C 50% 4.0 mph NW6.4 kmh NW 6.0 mph9.7 kmh 30.44 in1030.8 mb 0.00 in0.0 mm 0.00 in0.0 mm 0.00 in0.0 mm
08:20 PM 17.8°F-7.9°C 2.3°F-16.5°C 50% 3.0 mph NW4.8 kmh NW -- 30.44 in1030.8 mb 0.00 in0.0 mm 0.00 in0.0 mm 0.00 in0.0 mm
08:25 PM 17.7°F-7.9°C 2.3°F-16.5°C 50% 6.0 mph NW9.7 kmh NW -- 30.45 in1031.2 mb 0.00 in0.0 mm 0.00 in0.0 mm 0.00 in0.0 mm
08:30 PM 17.7°F-7.9°C 2.3°F-16.5°C 50% 7.0 mph NW11.3 kmh NW -- 30.45 in1031.2 mb 0.00 in0.0 mm 0.00 in0.0 mm 0.00 in0.0 mm
08:35 PM 17.7°F-7.9°C 2.3°F-16.5°C 50% 5.0 mph NW8.0 kmh NW -- 30.45 in1031.2 mb 0.00 in0.0 mm 0.00 in0.0 mm 0.00 in0.0 mm
08:40 PM 17.7°F-7.9°C 2.3°F-16.5°C 50% 2.0 mph NW3.2 kmh NW 9.0 mph14.5 kmh 30.45 in1031.2 mb 0.00 in0.0 mm 0.00 in0.0 mm 0.00 in0.0 mm
08:45 PM 17.7°F-7.9°C 2.3°F-16.5°C 50% 2.0 mph NW3.2 kmh NW -- 30.45 in1031.2 mb 0.00 in0.0 mm 0.00 in0.0 mm 0.00 in0.0 mm
08:50 PM 17.6°F-8.0°C 2.1°F-16.6°C 50% 5.0 mph WNW8.0 kmh WNW -- 30.46 in1031.5 mb 0.00 in0.0 mm 0.00 in0.0 mm 0.00 in0.0 mm
08:55 PM 17.6°F-8.0°C 2.1°F-16.6°C 50% 5.0 mph NW8.0 kmh NW -- 30.46 in1031.5 mb 0.00 in0.0 mm 0.00 in0.0 mm 0.00 in0.0 mm
09:00 PM 17.6°F-8.0°C 2.1°F-16.6°C 50% 6.0 mph NW9.7 kmh NW -- 30.46 in1031.5 mb 0.00 in0.0 mm 0.00 in0.0 mm 0.00 in0.0 mm
09:05 PM 17.6°F-8.0°C 2.1°F-16.6°C 50% 6.0 mph NW9.7 kmh NW 12.0 mph19.3 kmh 30.47 in1031.8 mb 0.00 in0.0 mm 0.00 in0.0 mm 0.00 in0.0 mm
09:10 PM 17.5°F-8.1°C 1.6°F-16.9°C 49% 4.0 mph NW6.4 kmh NW -- 30.47 in1031.8 mb 0.00 in0.0 mm 0.00 in0.0 mm 0.00 in0.0 mm
09:15 PM 17.5°F-8.1°C 1.9°F-16.7°C 50% 7.0 mph NW11.3 kmh NW -- 30.47 in1031.8 mb 0.00 in0.0 mm 0.00 in0.0 mm 0.00 in0.0 mm
09:20 PM 17.4°F-8.1°C 1.9°F-16.7°C 50% 5.0 mph NW8.0 kmh NW -- 30.47 in1031.8 mb 0.00 in0.0 mm 0.00 in0.0 mm 0.00 in0.0 mm
09:25 PM 17.3°F-8.2°C 1.8°F-16.8°C 50% 4.0 mph NW6.4 kmh NW -- 30.48 in1032.2 mb 0.00 in0.0 mm 0.00 in0.0 mm 0.00 in0.0 mm
09:30 PM 17.2°F-8.2°C 1.8°F-16.8°C 50% 5.0 mph NW8.0 kmh NW 8.0 mph12.9 kmh 30.48 in1032.2 mb 0.00 in0.0 mm 0.00 in0.0 mm 0.00 in0.0 mm
09:35 PM 17.0°F-8.3°C 1.6°F-16.9°C 50% 4.0 mph NW6.4 kmh NW -- 30.48 in1032.2 mb 0.00 in0.0 mm 0.00 in0.0 mm 0.00 in0.0 mm
09:40 PM 17.0°F-8.3°C 2.1°F-16.6°C 51% 7.0 mph NW11.3 kmh NW -- 30.48 in1032.2 mb 0.00 in0.0 mm 0.00 in0.0 mm 0.00 in0.0 mm
09:45 PM 16.9°F-8.4°C 1.6°F-16.9°C 50% 4.0 mph NW6.4 kmh NW -- 30.49 in1032.5 mb 0.00 in0.0 mm 0.00 in0.0 mm 0.00 in0.0 mm
09:50 PM 16.8°F-8.4°C 1.9°F-16.7°C 51% 6.0 mph NW9.7 kmh NW -- 30.49 in1032.5 mb 0.00 in0.0 mm 0.00 in0.0 mm 0.00 in0.0 mm
09:55 PM 16.7°F-8.5°C 1.8°F-16.8°C 51% 3.0 mph NW4.8 kmh NW 12.0 mph19.3 kmh 30.49 in1032.5 mb 0.00 in0.0 mm 0.00 in0.0 mm 0.00 in0.0 mm
10:00 PM 16.7°F-8.5°C 1.8°F-16.8°C 51% 7.0 mph NW11.3 kmh NW -- 30.50 in1032.8 mb 0.00 in0.0 mm 0.00 in0.0 mm 0.00 in0.0 mm
10:05 PM 16.7°F-8.5°C 1.8°F-16.8°C 51% 10.0 mph NW16.1 kmh NW -- 30.50 in1032.8 mb 0.00 in0.0 mm 0.00 in0.0 mm 0.00 in0.0 mm
10:10 PM 16.7°F-8.5°C 1.8°F-16.8°C 51% 3.0 mph NW4.8 kmh NW -- 30.50 in1032.8 mb 0.00 in0.0 mm 0.00 in0.0 mm 0.00 in0.0 mm
10:15 PM 16.5°F-8.6°C 1.6°F-16.9°C 51% 4.0 mph NW6.4 kmh NW -- 30.50 in1032.8 mb 0.00 in0.0 mm 0.00 in0.0 mm 0.00 in0.0 mm
10:20 PM 16.3°F-8.7°C 1.4°F-17.0°C 51% 7.0 mph NNE11.3 kmh NNE 15.0 mph24.1 kmh 30.51 in1033.2 mb 0.00 in0.0 mm 0.00 in0.0 mm 0.00 in0.0 mm
10:25 PM 16.3°F-8.7°C 1.0°F-17.2°C 50% 6.0 mph NW9.7 kmh NW -- 30.51 in1033.2 mb 0.00 in0.0 mm 0.00 in0.0 mm 0.00 in0.0 mm
10:30 PM 16.3°F-8.7°C 1.0°F-17.2°C 50% 10.0 mph N16.1 kmh N -- 30.51 in1033.2 mb 0.00 in0.0 mm 0.00 in0.0 mm 0.00 in0.0 mm
10:35 PM 16.4°F-8.7°C 1.0°F-17.2°C 50% 9.0 mph NW14.5 kmh NW -- 30.51 in1033.2 mb 0.00 in0.0 mm 0.00 in0.0 mm 0.00 in0.0 mm
10:40 PM 16.3°F-8.7°C 1.0°F-17.2°C 50% 5.0 mph NW8.0 kmh NW -- 30.52 in1033.5 mb 0.00 in0.0 mm 0.00 in0.0 mm 0.00 in0.0 mm
10:45 PM 16.1°F-8.8°C 0.9°F-17.3°C 50% 5.0 mph NW8.0 kmh NW 11.0 mph17.7 kmh 30.52 in1033.5 mb 0.00 in0.0 mm 0.00 in0.0 mm 0.00 in0.0 mm
10:50 PM 16.0°F-8.9°C 1.0°F-17.2°C 51% 4.0 mph NW6.4 kmh NW -- 30.52 in1033.5 mb 0.00 in0.0 mm 0.00 in0.0 mm 0.00 in0.0 mm
10:55 PM 15.8°F-9.0°C 0.9°F-17.3°C 51% 10.0 mph NW16.1 kmh NW -- 30.52 in1033.5 mb 0.00 in0.0 mm 0.00 in0.0 mm 0.00 in0.0 mm
11:00 PM 15.6°F-9.1°C 0.7°F-17.4°C 51% 10.0 mph NW16.1 kmh NW -- 30.52 in1033.5 mb 0.00 in0.0 mm 0.00 in0.0 mm 0.00 in0.0 mm
11:05 PM 15.6°F-9.1°C 0.7°F-17.4°C 51% 6.0 mph NW9.7 kmh NW -- 30.52 in1033.5 mb 0.00 in0.0 mm 0.00 in0.0 mm 0.00 in0.0 mm
11:10 PM 15.5°F-9.2°C 0.5°F-17.5°C 51% 6.0 mph NW9.7 kmh NW 12.0 mph19.3 kmh 30.52 in1033.5 mb 0.00 in0.0 mm 0.00 in0.0 mm 0.00 in0.0 mm
11:15 PM 15.4°F-9.2°C 1.0°F-17.2°C 52% 9.0 mph NW14.5 kmh NW -- 30.52 in1033.5 mb 0.00 in0.0 mm 0.00 in0.0 mm 0.00 in0.0 mm
11:20 PM 15.3°F-9.3°C 0.9°F-17.3°C 52% 10.0 mph NW16.1 kmh NW -- 30.53 in1033.9 mb 0.00 in0.0 mm 0.00 in0.0 mm 0.00 in0.0 mm
11:25 PM 15.2°F-9.3°C 0.9°F-17.3°C 52% 6.0 mph NW9.7 kmh NW -- 30.53 in1033.9 mb 0.00 in0.0 mm 0.00 in0.0 mm 0.00 in0.0 mm
11:30 PM 15.1°F-9.4°C 0.7°F-17.4°C 52% 6.0 mph NW9.7 kmh NW -- 30.53 in1033.9 mb 0.00 in0.0 mm 0.00 in0.0 mm 0.00 in0.0 mm
11:35 PM 14.9°F-9.5°C 0.5°F-17.5°C 52% 5.0 mph NW8.0 kmh NW 11.0 mph17.7 kmh 30.53 in1033.9 mb 0.00 in0.0 mm 0.00 in0.0 mm 0.00 in0.0 mm
11:40 PM 14.9°F-9.5°C 0.5°F-17.5°C 52% 6.0 mph NW9.7 kmh NW -- 30.54 in1034.2 mb 0.00 in0.0 mm 0.00 in0.0 mm 0.00 in0.0 mm
11:45 PM 14.8°F-9.6°C 0.3°F-17.6°C 52% 4.0 mph NW6.4 kmh NW -- 30.54 in1034.2 mb 0.00 in0.0 mm 0.00 in0.0 mm 0.00 in0.0 mm
11:50 PM 14.7°F-9.6°C 0.3°F-17.6°C 52% 6.0 mph NW9.7 kmh NW -- 30.54 in1034.2 mb 0.00 in0.0 mm 0.00 in0.0 mm 0.00 in0.0 mm
11:55 PM 14.6°F-9.7°C 0.1°F-17.7°C 52% 5.0 mph NW8.0 kmh NW -- 30.54 in1034.2 mb 0.00 in0.0 mm 0.00 in0.0 mm 0.00 in0.0 mm